sensor_id;sensor_type;location;lat;lon;timestamp;pressure;altitude;pressure_sealevel;temperature;humidity
39769;BME280;38939;47.824;14.642;2023-12-07T20:56:36;97043.56;;;-0.65;88.74
39769;BME280;38939;47.824;14.642;2023-12-07T20:57:47;97048.19;;;-0.59;88.46
39769;BME280;38939;47.824;14.642;2023-12-07T20:58:53;97047.66;;;-0.63;88.34
39769;BME280;38939;47.824;14.642;2023-12-07T20:59:54;97041.97;;;-0.66;88.45
39769;BME280;38939;47.824;14.642;2023-12-07T21:00:56;97044.53;;;-0.66;88.43
39769;BME280;38939;47.824;14.642;2023-12-07T21:01:58;97038.31;;;-0.64;88.42
39769;BME280;38939;47.824;14.642;2023-12-07T21:03:00;97044.41;;;-0.65;88.58
39769;BME280;38939;47.824;14.642;2023-12-07T21:04:03;97043.69;;;-0.67;88.07
39769;BME280;38939;47.824;14.642;2023-12-07T21:05:05;97044.66;;;-0.68;88.46
39769;BME280;38939;47.824;14.642;2023-12-07T21:06:07;97039.78;;;-0.71;88.12
39769;BME280;38939;47.824;14.642;2023-12-07T21:07:25;97039.66;;;-0.69;88.44
39769;BME280;38939;47.824;14.642;2023-12-07T21:08:28;97043.69;;;-0.67;88.31
39769;BME280;38939;47.824;14.642;2023-12-07T21:09:30;97045.22;;;-0.64;88.53
39769;BME280;38939;47.824;14.642;2023-12-07T21:10:31;97039.66;;;-0.69;88.11
39769;BME280;38939;47.824;14.642;2023-12-07T21:11:34;97044.53;;;-0.66;88.18
39769;BME280;38939;47.824;14.642;2023-12-07T21:12:35;97041.41;;;-0.70;88.06
39769;BME280;38939;47.824;14.642;2023-12-07T21:13:37;97032.09;;;-0.71;88.34
39769;BME280;38939;47.824;14.642;2023-12-07T21:14:39;97039.78;;;-0.71;87.74
39769;BME280;38939;47.824;14.642;2023-12-07T21:15:41;97041.78;;;-0.74;87.97
39769;BME280;38939;47.824;14.642;2023-12-07T21:16:43;97037.47;;;-0.74;87.83
39769;BME280;38939;47.824;14.642;2023-12-07T21:17:45;97040.59;;;-0.70;88.00
39769;BME280;38939;47.824;14.642;2023-12-07T21:18:47;97040.59;;;-0.70;88.05
39769;BME280;38939;47.824;14.642;2023-12-07T21:19:49;97036.41;;;-0.71;88.40
39769;BME280;38939;47.824;14.642;2023-12-07T21:20:51;97037.09;;;-0.69;87.98
39769;BME280;38939;47.824;14.642;2023-12-07T21:21:53;97032.91;;;-0.70;87.75
39769;BME280;38939;47.824;14.642;2023-12-07T21:22:54;97033.84;;;-0.71;88.21
39769;BME280;38939;47.824;14.642;2023-12-07T21:23:56;97035.19;;;-0.67;88.12
39769;BME280;38939;47.824;14.642;2023-12-07T21:24:58;97028.31;;;-0.67;88.04
39769;BME280;38939;47.824;14.642;2023-12-07T21:26:00;97019.94;;;-0.69;87.92
39769;BME280;38939;47.824;14.642;2023-12-07T21:27:04;97028.47;;;-0.68;88.43
39769;BME280;38939;47.824;14.642;2023-12-07T21:28:05;97025.53;;;-0.64;88.22
39769;BME280;38939;47.824;14.642;2023-12-07T21:29:07;97015.66;;;-0.68;88.19
39769;BME280;38939;47.824;14.642;2023-12-07T21:30:09;97017.94;;;-0.65;87.94
39769;BME280;38939;47.824;14.642;2023-12-07T21:31:11;97023.03;;;-0.75;87.91
39769;BME280;38939;47.824;14.642;2023-12-07T21:32:16;97020.28;;;-0.83;87.25
39769;BME280;38939;47.824;14.642;2023-12-07T21:33:18;97016.13;;;-0.84;87.49
39769;BME280;38939;47.824;14.642;2023-12-07T21:34:20;97010.06;;;-0.83;87.83
39769;BME280;38939;47.824;14.642;2023-12-07T21:35:22;97017.38;;;-0.78;88.06
39769;BME280;38939;47.824;14.642;2023-12-07T21:36:24;97012.50;;;-0.82;88.26
39769;BME280;38939;47.824;14.642;2023-12-07T21:37:26;97010.06;;;-0.83;88.01
39769;BME280;38939;47.824;14.642;2023-12-07T21:38:28;97016.00;;;-0.83;87.94
39769;BME280;38939;47.824;14.642;2023-12-07T21:39:29;97004.81;;;-0.82;88.20
39769;BME280;38939;47.824;14.642;2023-12-07T21:40:31;97000.50;;;-0.81;87.92
39769;BME280;38939;47.824;14.642;2023-12-07T21:41:33;97004.69;;;-0.80;88.17
39769;BME280;38939;47.824;14.642;2023-12-07T21:42:35;96993.63;;;-0.81;88.16
39769;BME280;38939;47.824;14.642;2023-12-07T21:43:37;96997.81;;;-0.79;88.08
39769;BME280;38939;47.824;14.642;2023-12-07T21:44:39;96993.38;;;-0.77;88.32
39769;BME280;38939;47.824;14.642;2023-12-07T21:45:41;96995.00;;;-0.76;88.32
39769;BME280;38939;47.824;14.642;2023-12-07T21:46:43;96994.31;;;-0.78;87.81
39769;BME280;38939;47.824;14.642;2023-12-07T21:47:44;96989.72;;;-0.85;87.89
39769;BME280;38939;47.824;14.642;2023-12-07T21:48:47;96990.41;;;-0.83;87.90
39769;BME280;38939;47.824;14.642;2023-12-07T21:49:48;96992.56;;;-0.78;88.29
39769;BME280;38939;47.824;14.642;2023-12-07T21:50:50;96983.69;;;-0.74;87.71
39769;BME280;38939;47.824;14.642;2023-12-07T21:51:52;96987.56;;;-0.79;87.60
39769;BME280;38939;47.824;14.642;2023-12-07T21:52:54;96985.41;;;-0.84;87.46
39769;BME280;38939;47.824;14.642;2023-12-07T21:53:56;96983.63;;;-0.84;87.74
39769;BME280;38939;47.824;14.642;2023-12-07T21:54:57;96983.06;;;-0.87;88.09
39769;BME280;38939;47.824;14.642;2023-12-07T21:55:59;96981.97;;;-0.94;87.66
39769;BME280;38939;47.824;14.642;2023-12-07T21:57:02;96976.53;;;-1.01;87.65
39769;BME280;38939;47.824;14.642;2023-12-07T21:58:04;96983.91;;;-1.08;88.00
39769;BME280;38939;47.824;14.642;2023-12-07T21:59:06;96978.25;;;-1.11;88.06
39769;BME280;38939;47.824;14.642;2023-12-07T22:00:08;96981.19;;;-1.16;88.27
39769;BME280;38939;47.824;14.642;2023-12-07T22:01:14;96984.81;;;-1.18;88.29
39769;BME280;38939;47.824;14.642;2023-12-07T22:02:16;96976.88;;;-1.15;88.60
39769;BME280;38939;47.824;14.642;2023-12-07T22:03:18;96971.91;;;-1.17;88.49
39769;BME280;38939;47.824;14.642;2023-12-07T22:04:20;96973.94;;;-1.11;88.59
39769;BME280;38939;47.824;14.642;2023-12-07T22:05:22;96975.31;;;-1.07;88.84
39769;BME280;38939;47.824;14.642;2023-12-07T22:06:24;96974.38;;;-1.06;88.73
39769;BME280;38939;47.824;14.642;2023-12-07T22:07:26;96969.38;;;-1.07;88.68
39769;BME280;38939;47.824;14.642;2023-12-07T22:08:29;96973.94;;;-1.11;88.64
39769;BME280;38939;47.824;14.642;2023-12-07T22:09:31;96971.63;;;-1.14;88.85
39769;BME280;38939;47.824;14.642;2023-12-07T22:10:33;96964.47;;;-1.20;88.84
39769;BME280;38939;47.824;14.642;2023-12-07T22:11:35;96965.16;;;-1.18;89.14
39769;BME280;38939;47.824;14.642;2023-12-07T22:12:36;96961.66;;;-1.17;89.32
39769;BME280;38939;47.824;14.642;2023-12-07T22:13:38;96963.16;;;-1.14;89.19
39769;BME280;38939;47.824;14.642;2023-12-07T22:14:40;96950.75;;;-1.19;89.33
39769;BME280;38939;47.824;14.642;2023-12-07T22:15:42;96958.41;;;-1.19;89.04
39769;BME280;38939;47.824;14.642;2023-12-07T22:16:43;96955.28;;;-1.23;89.11
39769;BME280;38939;47.824;14.642;2023-12-07T22:17:45;96954.59;;;-1.25;89.03
39769;BME280;38939;47.824;14.642;2023-12-07T22:18:47;96952.03;;;-1.25;89.27
39769;BME280;38939;47.824;14.642;2023-12-07T22:19:49;96952.84;;;-1.24;89.06
39769;BME280;38939;47.824;14.642;2023-12-07T22:20:51;96942.19;;;-1.29;89.08
39769;BME280;38939;47.824;14.642;2023-12-07T22:21:53;96947.16;;;-1.28;89.05
39769;BME280;38939;47.824;14.642;2023-12-07T22:22:55;96948.00;;;-1.27;89.14
39769;BME280;38939;47.824;14.642;2023-12-07T22:23:57;96949.50;;;-1.25;89.33
39769;BME280;38939;47.824;14.642;2023-12-07T22:24:59;96942.06;;;-1.28;88.95
39769;BME280;38939;47.824;14.642;2023-12-07T22:26:00;96950.28;;;-1.24;89.11
39769;BME280;38939;47.824;14.642;2023-12-07T22:27:02;96942.63;;;-1.24;88.96
39769;BME280;38939;47.824;14.642;2023-12-07T22:28:04;96942.38;;;-1.21;89.23
39769;BME280;38939;47.824;14.642;2023-12-07T22:29:06;96946.31;;;-1.17;88.88
39769;BME280;38939;47.824;14.642;2023-12-07T22:30:08;96949.53;;;-1.15;89.04
39769;BME280;38939;47.824;14.642;2023-12-07T22:31:10;96949.41;;;-1.13;88.80
39769;BME280;38939;47.824;14.642;2023-12-07T22:32:12;96945.53;;;-1.08;88.55
39769;BME280;38939;47.824;14.642;2023-12-07T22:33:14;96952.41;;;-1.08;88.47
39769;BME280;38939;47.824;14.642;2023-12-07T22:34:16;96944.97;;;-1.11;88.30
39769;BME280;38939;47.824;14.642;2023-12-07T22:35:19;96944.84;;;-1.10;87.97
39769;BME280;38939;47.824;14.642;2023-12-07T22:36:21;96946.31;;;-1.17;87.66
39769;BME280;38939;47.824;14.642;2023-12-07T22:37:26;96938.28;;;-1.24;87.93
39769;BME280;38939;47.824;14.642;2023-12-07T22:38:28;96945.00;;;-1.32;87.79
39769;BME280;38939;47.824;14.642;2023-12-07T22:39:30;96940.13;;;-1.35;87.55
39769;BME280;38939;47.824;14.642;2023-12-07T22:40:32;96940.94;;;-1.35;87.93
39769;BME280;38939;47.824;14.642;2023-12-07T22:41:34;96936.63;;;-1.34;88.00
39769;BME280;38939;47.824;14.642;2023-12-07T22:42:36;96931.28;;;-1.31;88.11
39769;BME280;38939;47.824;14.642;2023-12-07T22:43:38;96940.56;;;-1.30;88.11
39769;BME280;38939;47.824;14.642;2023-12-07T22:44:40;96946.63;;;-1.31;88.07
39769;BME280;38939;47.824;14.642;2023-12-07T22:45:42;96937.56;;;-1.35;88.31
39769;BME280;38939;47.824;14.642;2023-12-07T22:46:44;96932.44;;;-1.35;88.58
39769;BME280;38939;47.824;14.642;2023-12-07T22:47:45;96937.81;;;-1.38;88.76
39769;BME280;38939;47.824;14.642;2023-12-07T22:48:51;96928.78;;;-1.43;88.64
39769;BME280;38939;47.824;14.642;2023-12-07T22:49:53;96929.06;;;-1.36;88.68
39769;BME280;38939;47.824;14.642;2023-12-07T22:50:54;96932.88;;;-1.30;88.74
39769;BME280;38939;47.824;14.642;2023-12-07T22:51:57;96928.97;;;-1.34;88.14
39769;BME280;38939;47.824;14.642;2023-12-07T22:52:59;96929.06;;;-1.36;87.99
39769;BME280;38939;47.824;14.642;2023-12-07T22:54:01;96930.03;;;-1.37;87.93
39769;BME280;38939;47.824;14.642;2023-12-07T22:55:04;96928.97;;;-1.34;88.02
39769;BME280;38939;47.824;14.642;2023-12-07T22:56:06;96926.91;;;-1.41;87.38
39769;BME280;38939;47.824;14.642;2023-12-07T22:57:08;96924.34;;;-1.41;87.87
39769;BME280;38939;47.824;14.642;2023-12-07T22:58:10;96927.81;;;-1.42;87.45
39769;BME280;38939;47.824;14.642;2023-12-07T22:59:13;96927.81;;;-1.42;87.45
39769;BME280;38939;47.824;14.642;2023-12-07T23:00:14;96925.03;;;-1.38;87.79
39769;BME280;38939;47.824;14.642;2023-12-07T23:01:22;96931.41;;;-1.33;87.64
39769;BME280;38939;47.824;14.642;2023-12-07T23:02:24;96923.97;;;-1.36;87.59
39769;BME280;38939;47.824;14.642;2023-12-07T23:03:25;96925.94;;;-1.39;87.38
39769;BME280;38939;47.824;14.642;2023-12-07T23:04:27;96920.41;;;-1.45;87.41
39769;BME280;38939;47.824;14.642;2023-12-07T23:05:29;96915.97;;;-1.43;87.52
39769;BME280;38939;47.824;14.642;2023-12-07T23:06:31;96929.06;;;-1.36;87.69
39769;BME280;38939;47.824;14.642;2023-12-07T23:07:33;96922.09;;;-1.34;87.64
39769;BME280;38939;47.824;14.642;2023-12-07T23:08:35;96913.59;;;-1.34;87.41
39769;BME280;38939;47.824;14.642;2023-12-07T23:09:36;96914.28;;;-1.32;87.42
39769;BME280;38939;47.824;14.642;2023-12-07T23:10:38;96924.91;;;-1.37;87.34
39769;BME280;38939;47.824;14.642;2023-12-07T23:11:40;96917.59;;;-1.42;87.16
39769;BME280;38939;47.824;14.642;2023-12-07T23:12:42;96922.03;;;-1.44;86.98
39769;BME280;38939;47.824;14.642;2023-12-07T23:13:44;96926.72;;;-1.49;87.05
39769;BME280;38939;47.824;14.642;2023-12-07T23:14:46;96931.66;;;-1.57;86.86
39769;BME280;38939;47.824;14.642;2023-12-07T23:15:48;96925.28;;;-1.63;87.11
39769;BME280;38939;47.824;14.642;2023-12-07T23:16:49;96925.16;;;-1.61;87.25
39769;BME280;38939;47.824;14.642;2023-12-07T23:17:51;96922.84;;;-1.64;87.63
39769;BME280;38939;47.824;14.642;2023-12-07T23:18:53;96916.81;;;-1.63;87.47
39769;BME280;38939;47.824;14.642;2023-12-07T23:19:55;96913.56;;;-1.65;87.36
39769;BME280;38939;47.824;14.642;2023-12-07T23:20:57;96911.50;;;-1.71;87.90
39769;BME280;38939;47.824;14.642;2023-12-07T23:22:00;96905.44;;;-1.70;88.30
39769;BME280;38939;47.824;14.642;2023-12-07T23:23:01;96908.28;;;-1.73;88.36
39769;BME280;38939;47.824;14.642;2023-12-07T23:24:04;96903.69;;;-1.70;88.46
39769;BME280;38939;47.824;14.642;2023-12-07T23:25:06;96902.88;;;-1.70;88.38
39769;BME280;38939;47.824;14.642;2023-12-07T23:26:09;96906.13;;;-1.68;88.33
39769;BME280;38939;47.824;14.642;2023-12-07T23:27:11;96904.38;;;-1.68;88.22
39769;BME280;38939;47.824;14.642;2023-12-07T23:28:12;96895.09;;;-1.69;87.95
39769;BME280;38939;47.824;14.642;2023-12-07T23:29:14;96902.19;;;-1.72;88.04
39769;BME280;38939;47.824;14.642;2023-12-07T23:30:16;96887.53;;;-1.70;88.04
39769;BME280;38939;47.824;14.642;2023-12-07T23:31:18;96892.28;;;-1.66;88.05
39769;BME280;38939;47.824;14.642;2023-12-07T23:32:20;96892.41;;;-1.67;87.89
39769;BME280;38939;47.824;14.642;2023-12-07T23:33:22;96884.06;;;-1.69;87.91
39769;BME280;38939;47.824;14.642;2023-12-07T23:34:24;96891.06;;;-1.71;87.96
39769;BME280;38939;47.824;14.642;2023-12-07T23:35:26;96885.94;;;-1.71;87.83
39769;BME280;38939;47.824;14.642;2023-12-07T23:36:28;96887.31;;;-1.67;88.04
39769;BME280;38939;47.824;14.642;2023-12-07T23:37:30;96898.56;;;-1.70;87.84
39769;BME280;38939;47.824;14.642;2023-12-07T23:38:32;96898.03;;;-1.73;87.68
39769;BME280;38939;47.824;14.642;2023-12-07T23:39:34;96903.84;;;-1.71;87.73
39769;BME280;38939;47.824;14.642;2023-12-07T23:40:36;96908.00;;;-1.70;87.88
39769;BME280;38939;47.824;14.642;2023-12-07T23:41:38;96907.44;;;-1.74;87.75
39769;BME280;38939;47.824;14.642;2023-12-07T23:42:40;96901.41;;;-1.73;87.65
39769;BME280;38939;47.824;14.642;2023-12-07T23:43:42;96904.53;;;-1.69;87.70
39769;BME280;38939;47.824;14.642;2023-12-07T23:44:44;96904.25;;;-1.66;87.76
39769;BME280;38939;47.824;14.642;2023-12-07T23:45:49;96899.75;;;-1.74;87.34
39769;BME280;38939;47.824;14.642;2023-12-07T23:46:51;96894.78;;;-1.75;87.72
39769;BME280;38939;47.824;14.642;2023-12-07T23:47:53;96899.66;;;-1.72;88.03
39769;BME280;38939;47.824;14.642;2023-12-07T23:48:56;96898.03;;;-1.73;88.11
39769;BME280;38939;47.824;14.642;2023-12-07T23:49:58;96893.09;;;-1.86;88.20
39769;BME280;38939;47.824;14.642;2023-12-07T23:50:59;96893.25;;;-1.88;88.44
39769;BME280;38939;47.824;14.642;2023-12-07T23:52:01;96893.25;;;-1.88;88.54
39769;BME280;38939;47.824;14.642;2023-12-07T23:53:03;96903.31;;;-1.86;88.20
39769;BME280;38939;47.824;14.642;2023-12-07T23:54:05;96894.03;;;-1.87;88.63
39769;BME280;38939;47.824;14.642;2023-12-07T23:55:07;96892.06;;;-1.84;88.42
39769;BME280;38939;47.824;14.642;2023-12-07T23:56:09;96896.47;;;-1.86;88.26
39769;BME280;38939;47.824;14.642;2023-12-07T23:57:13;96897.16;;;-1.84;88.51
39769;BME280;38939;47.824;14.642;2023-12-07T23:58:15;96889.63;;;-1.85;88.49
39769;BME280;38939;47.824;14.642;2023-12-07T23:59:16;96888.66;;;-1.84;88.64
